• Join FlightAware (Why Join?)
  • Login
  • US Flag 
11:20PM EDT


 

Airport Tracker/Info


-or-


 

Live Flight TrackerFlight Track Log ✈ N50KC ✈ 02-Jun-2013 ✈ KJFK - KLAX

Flight Track Log - Related Links

Times and Time Zones

All times are in EDT time to prevent confusion due to time zone crossing. See the N50KC flight status page for this flight to view local times or setup timezone preferences in your user account.

Time Position Orientation Groundspeed Altitude Reporting Facility
EDT Latitude Longitude Course Direction KTS MPH feet Rate Location/Type
07:26PM 40.6167 -73.8167 270° West 165 190 3,000  Level New York TRACON
07:27PM 40.6000 -73.8833 252° West 239 275 6,000 3,360 Climbing New York TRACON
07:28PM 40.5500 -73.9500 225° Southwest 260 299 9,800 2,460 Climbing New York TRACON
07:29PM 40.4833 -74.0000 210° Southwest 307 353 11,000 600 Climbing New York TRACON
07:30PM 40.4167 -74.1000 229° Southwest 349 402 11,000 480 Level New York TRACON
07:31PM 40.3667 -74.2000 237° Southwest 352 405 12,000 600 Climbing New York TRACON
07:32PM 40.2167 -74.4588 270° West  Level FlightAware Approximate
07:32PM 40.3281 -74.2803 238° Southwest 355 409 12,000  Level New York Center
07:33PM 40.2733 -74.3728 232° Southwest 350 403 13,400 1,560 Climbing New York Center
07:34PM 40.2175 -74.4867 237° Southwest 362 417 15,200 1,800 Climbing New York Center
07:35PM 40.1925 -74.6158 256° West 367 422 17,000 2,100 Climbing New York Center
07:36PM 40.1819 -74.7483 264° West 391 450 19,400 1,920 Climbing New York Center
07:37PM 40.1703 -74.9081 265° West 411 473 20,900 1,500 Climbing New York Center
07:38PM 40.1583 -75.0647 264° West 427 491 22,400 1,680 Climbing New York Center
07:39PM 40.1461 -75.2242 264° West 439 505 24,300 1,920 Climbing New York Center
07:40PM 40.1317 -75.3836 263° West 444 511 26,300 2,460 Climbing New York Center
07:41PM 40.1192 -75.5428 264° West 444 511 29,300 2,280 Climbing New York Center
07:42PM 40.1069 -75.6886 264° West 449 517 30,900 1,920 Climbing New York Center
07:43PM 40.0917 -75.8475 263° West 449 517 33,200 2,340 Climbing New York Center
07:44PM 40.0789 -75.9986 264° West 438 504 35,600 2,280 Climbing New York Center
07:45PM 40.0661 -76.1469 264° West 432 497 37,800 1,860 Climbing New York Center
07:46PM 40.0461 -76.3053 261° West 418 481 39,400 1,260 Climbing New York Center
07:47PM 40.0331 -76.4508 263° West 412 474 40,400 960 Climbing New York Center
07:48PM 40.0197 -76.5961 263° West 407 468 41,300 900 Climbing New York Center
07:49PM 40.0039 -76.7439 262° West 407 468 42,300 780 Climbing New York Center
07:50PM 39.9900 -76.8944 263° West 412 474 42,900 300 Climbing New York Center
07:51PM 39.9739 -77.0447 262° West 417 480 43,000  Climbing New York Center
07:52PM 39.9614 -77.1953 264° West 422 486 43,000  Level New York Center
07:53PM 39.9553 -77.3464 267° West 422 486 43,000  Level New York Center
07:55PM 39.9642 -77.6250 272° West 423 487 43,000  Level Cleveland Center
07:56PM 39.9681 -77.7794 272° West 423 487 43,000  Level Cleveland Center
07:57PM 39.9739 -77.9361 273° West 428 493 43,000  Level Cleveland Center
07:58PM 39.9772 -78.0906 272° West 436 502 43,000  Level Cleveland Center
07:59PM 39.9828 -78.2475 273° West 436 502 43,000  Level Cleveland Center
08:00PM 39.9817 -78.3967 269° West 442 509 43,000  Level Cleveland Center
08:01PM 39.9844 -78.5536 271° West 442 509 43,000  Level Cleveland Center
08:02PM 39.9872 -78.7133 271° West 442 509 43,000  Level Cleveland Center
08:03PM 39.9897 -78.8706 271° West 437 503 43,000  Level Cleveland Center
08:04PM 39.9983 -79.0383 274° West 437 503 43,000  Level Cleveland Center
08:05PM 40.0025 -79.1928 272° West 437 503 43,000  Level Cleveland Center
08:06PM 40.0022 -79.3528 270° West 437 503 43,000  Level Cleveland Center
08:07PM 40.0058 -79.5097 272° West 437 503 43,000  Level Cleveland Center
08:08PM 40.0092 -79.6506 272° West 437 503 43,000  Level Cleveland Center
08:09PM 40.0083 -79.8081 270° West 437 503 43,000  Level Cleveland Center
08:10PM 40.0114 -79.9650 272° West 437 503 43,000  Level Cleveland Center
08:11PM 40.0142 -80.1194 271° West 437 503 43,000  Level Cleveland Center
08:12PM 40.0147 -80.2742 270° West 437 503 43,000  Level Cleveland Center
08:13PM 40.0169 -80.4258 271° West 437 503 43,000  Level Cleveland Center
08:14PM 40.0172 -80.5803 270° West 432 497 43,000  Level Cleveland Center
08:16PM 40.0142 -80.9267 269° West 420 483 43,000  Level Indianapolis Center
08:17PM 40.0133 -81.0789 270° West 416 479 43,000  Level Indianapolis Center
08:18PM 40.0103 -81.2311 269° West 415 478 43,000  Level Indianapolis Center
08:19PM 40.0081 -81.3839 269° West 417 480 43,000  Level Indianapolis Center
08:20PM 40.0050 -81.5400 269° West 424 488 43,000  Level Indianapolis Center
08:21PM 40.0014 -81.6933 268° West 421 484 43,000  Level Indianapolis Center
08:22PM 39.9983 -81.8508 269° West 421 484 43,000  Level Indianapolis Center
08:23PM 39.9936 -82.0303 268° West 421 484 43,000  Level Indianapolis Center
08:24PM 39.9900 -82.1836 268° West 420 483 43,000  Level Indianapolis Center
08:25PM 39.9867 -82.3353 268° West 417 480 43,000  Level Indianapolis Center
08:26PM 39.9819 -82.4892 268° West 421 484 43,000  Level Indianapolis Center
08:27PM 39.9781 -82.6433 268° West 422 486 43,000  Level Indianapolis Center
08:28PM 39.9739 -82.7978 268° West 423 487 43,000  Level Indianapolis Center
08:29PM 39.9681 -82.9544 267° West 429 494 43,000  Level Indianapolis Center
08:30PM 39.9647 -83.1106 268° West 429 494 43,000  Level Indianapolis Center
08:31PM 39.9625 -83.2636 269° West 424 488 43,000  Level Indianapolis Center
08:32PM 39.9578 -83.4194 268° West 432 497 43,000  Level Indianapolis Center
08:34PM 39.9483 -83.6017 266° West 439 505 43,000  Level Indianapolis Center
08:35PM 39.9431 -83.7578 268° West 433 498 43,000  Level Indianapolis Center
08:36PM 39.9367 -83.9142 267° West 432 497 43,000  Level Indianapolis Center
08:37PM 39.9300 -84.0711 267° West 431 496 43,000  Level Indianapolis Center
08:38PM 39.9236 -84.2297 267° West 435 501 43,000  Level Indianapolis Center
08:39PM 39.9153 -84.4142 267° West 436 502 43,000  Level Indianapolis Center
08:40PM 39.9086 -84.5736 267° West 438 504 43,000  Level Indianapolis Center
08:41PM 39.9011 -84.7306 266° West 434 499 43,000  Level Indianapolis Center
08:42PM 39.8931 -84.8978 266° West 435 501 43,000  Level Indianapolis Center
08:43PM 39.8864 -85.0558 267° West 437 503 43,000  Level Indianapolis Center
08:44PM 39.8775 -85.2125 266° West 436 502 43,000  Level Indianapolis Center
08:45PM 39.8694 -85.3697 266° West 437 503 43,000  Level Indianapolis Center
08:46PM 39.8617 -85.5275 266° West 439 505 43,000  Level Indianapolis Center
08:47PM 39.8536 -85.6833 266° West 436 502 43,000  Level Indianapolis Center
08:48PM 39.8453 -85.8394 266° West 434 499 43,000  Level Indianapolis Center
08:49PM 39.8347 -86.0294 266° West 441 507 43,000  Level Indianapolis Center
08:50PM 39.8247 -86.1922 265° West 445 512 43,000  Level Indianapolis Center
08:51PM 39.8172 -86.3336 266° West 441 507 43,000  Level Indianapolis Center
08:52PM 39.8178 -86.4939 270° West 441 507 43,000  Level Indianapolis Center
08:53PM 39.8211 -86.6833 271° West 439 505 43,000  Level Indianapolis Center
08:54PM 39.8239 -86.8431 271° West 444 511 43,000  Level Indianapolis Center
08:55PM 39.8269 -87.0014 271° West 440 506 43,000  Level Indianapolis Center
08:56PM 39.8292 -87.1594 271° West 439 505 43,000  Level Indianapolis Center
08:57PM 39.8311 -87.3181 271° West 441 507 43,000  Level Indianapolis Center
08:58PM 39.8347 -87.4758 272° West 440 506 43,000  Level Indianapolis Center
08:59PM 39.8356 -87.6683 270° West 444 511 43,000  Level Indianapolis Center
09:00PM 39.8369 -87.8292 271° West 446 513 43,000  Level Indianapolis Center
09:01PM 39.8383 -87.9897 271° West 446 513 43,000  Level Indianapolis Center
09:02PM 39.8392 -88.1494 270° West 446 513 43,000  Level Indianapolis Center
09:03PM 39.8397 -88.3097 270° West 445 512 43,000  Level Indianapolis Center
09:05PM 39.8414 -88.5131 271° West 444 511 43,000  Level Kansas City Center
09:06PM 39.8414 -88.6708 270° West 447 514 43,000  Level Kansas City Center
09:07PM 39.8414 -88.8336 270° West 448 516 43,000  Level Kansas City Center
09:08PM 39.8419 -88.9939 270° West 446 513 43,000  Level Kansas City Center
09:09PM 39.8408 -89.1531 270° West 442 509 43,000  Level Kansas City Center
09:10PM 39.8411 -89.3167 270° West 446 513 43,000  Level Kansas City Center
09:11PM 39.8397 -89.4781 269° West 447 514 43,000  Level Kansas City Center
09:12PM 39.8369 -89.6386 269° West 444 511 43,000  Level Kansas City Center
09:13PM 39.8250 -89.8286 265° West 442 509 43,000  Level Kansas City Center
09:14PM 39.8117 -89.9869 264° West 441 507 43,000  Level Kansas City Center
09:15PM 39.7956 -90.1461 263° West 442 509 43,000  Level Kansas City Center
09:16PM 39.7817 -90.3067 264° West 443 510 43,000  Level Kansas City Center
09:17PM 39.7689 -90.4675 264° West 444 511 43,000  Level Kansas City Center
09:18PM 39.7533 -90.6278 263° West 445 512 43,000  Level Kansas City Center
09:19PM 39.7386 -90.7803 263° West 442 509 43,000  Level Kansas City Center
09:20PM 39.7228 -90.9361 263° West 440 506 43,000  Level Kansas City Center
09:21PM 39.7056 -91.1194 263° West 431 496 43,000  Level Kansas City Center
09:22PM 39.6894 -91.2758 262° West 436 502 43,000  Level Kansas City Center
09:23PM 39.6758 -91.4214 263° West 439 505 43,000  Level Kansas City Center
09:24PM 39.6583 -91.5778 262° West 439 505 43,000  Level Kansas City Center
09:25PM 39.6422 -91.7319 262° West 436 502 43,000  Level Kansas City Center
09:26PM 39.6228 -91.9164 262° West 434 499 43,000  Level Kansas City Center
09:27PM 39.6064 -92.0681 262° West 431 496 43,000  Level Kansas City Center
09:28PM 39.5894 -92.2211 262° West 429 494 43,000  Level Kansas City Center
09:29PM 39.5731 -92.3728 262° West 428 493 43,000  Level Kansas City Center
09:30PM 39.5553 -92.5258 261° West 429 494 43,000  Level Kansas City Center
09:31PM 39.5381 -92.6797 262° West 430 495 43,000  Level Kansas City Center
09:32PM 39.5203 -92.8333 262° West 432 497 43,000  Level Kansas City Center
09:33PM 39.5031 -92.9850 262° West 431 496 43,000  Level Kansas City Center
09:34PM 39.4803 -93.1683 261° West 432 497 43,000  Level Kansas City Center
09:35PM 39.4633 -93.3247 262° West 438 504 43,000  Level Kansas City Center
09:36PM 39.4444 -93.4778 261° West 436 502 43,000  Level Kansas City Center
09:37PM 39.4267 -93.6286 261° West 430 495 43,000  Level Kansas City Center
09:38PM 39.4056 -93.7956 261° West 430 495 43,000  Level Kansas City Center
09:39PM 39.3875 -93.9422 261° West 430 495 43,000  Level Kansas City Center
09:40PM 39.3697 -94.0889 261° West 432 497 43,000  Level Kansas City Center
09:41PM 39.3478 -94.2600 261° West 433 498 43,000  Level Kansas City Center
09:42PM 39.3283 -94.4075 260° West 434 499 43,000  Level Kansas City Center
09:43PM 39.3069 -94.5808 261° West 437 503 43,000  Level Kansas City Center
09:44PM 39.2861 -94.7289 260° West 438 504 43,000  Level Kansas City Center
09:45PM 39.2692 -94.8778 262° West 438 504 43,000  Level Kansas City Center
09:46PM 39.2489 -95.0536 262° West 439 505 43,000  Level Kansas City Center
09:48PM 39.2297 -95.2142 261° West 441 507 43,000  Level Kansas City Center
09:49PM 39.2111 -95.3789 262° West 435 501 43,000  Level Kansas City Center
09:50PM 39.1933 -95.5344 262° West 433 498 43,000  Level Kansas City Center
09:51PM 39.1756 -95.6811 261° West 433 498 43,000  Level Kansas City Center
09:52PM 39.1572 -95.8283 261° West 435 501 43,000  Level Kansas City Center
09:53PM 39.1361 -95.9992 261° West 433 498 43,000  Level Kansas City Center
09:54PM 39.1181 -96.1444 261° West 431 496 43,000  Level Kansas City Center
09:55PM 39.0964 -96.3164 261° West 434 499 43,000  Level Kansas City Center
09:56PM 39.0783 -96.4628 261° West 433 498 43,000  Level Kansas City Center
09:57PM 39.0589 -96.6094 260° West 434 499 43,000  Level Kansas City Center
09:58PM 39.0369 -96.7811 261° West 435 501 43,000  Level Kansas City Center
09:59PM 39.0178 -96.9294 261° West 438 504 43,000  Level Kansas City Center
10:00PM 38.9944 -97.1017 260° West 438 504 43,000  Level Kansas City Center
10:01PM 38.9767 -97.2469 261° West 441 507 43,000  Level Kansas City Center
10:02PM 38.9561 -97.3983 260° West 435 501 43,000  Level Kansas City Center
10:03PM 38.9322 -97.5658 260° West 432 497 43,000  Level Kansas City Center
10:04PM 38.9144 -97.7133 261° West 434 499 43,000  Level Kansas City Center
10:05PM 38.8972 -97.8556 261° West 436 502 43,000  Level Kansas City Center
10:06PM 38.8753 -98.0383 261° West 434 499 43,000  Level Kansas City Center
10:07PM 38.8558 -98.1872 261° West 425 489 43,000  Level Kansas City Center
10:08PM 38.8386 -98.3358 262° West 424 488 43,000  Level Kansas City Center
10:09PM 38.8194 -98.4842 261° West 424 488 43,000  Level Kansas City Center
10:10PM 38.7997 -98.6325 260° West 425 489 43,000  Level Kansas City Center
10:11PM 38.7811 -98.7797 261° West 421 484 43,000  Level Kansas City Center
10:12PM 38.7622 -98.9286 261° West 424 488 43,000  Level Kansas City Center
10:13PM 38.7417 -99.0783 260° West 426 490 43,000  Level Kansas City Center
10:14PM 38.7172 -99.2564 260° West 426 490 43,000  Level Kansas City Center
10:15PM 38.6969 -99.4053 260° West 425 489 43,000  Level Kansas City Center
10:16PM 38.6764 -99.5561 260° West 427 491 43,000  Level Kansas City Center
10:17PM 38.6567 -99.6986 260° West 426 490 43,000  Level Kansas City Center
10:18PM 38.6328 -99.8636 260° West 424 488 43,000  Level Kansas City Center
10:19PM 38.6131 -100.0061 260° West 425 489 43,000  Level Kansas City Center
10:20PM 38.5928 -100.1486 260° West 426 490 43,000  Level Kansas City Center
10:21PM 38.5689 -100.3117 259° West 423 487 43,000  Level Kansas City Center
10:22PM 38.5483 -100.4519 259° West 421 484 43,000  Level Kansas City Center
10:23PM 38.5406 -100.4958 257° West 420 483 43,000  Level Denver Center
10:24PM 38.5164 -100.6597 259° West 422 486 43,000  Level Denver Center
10:24PM 38.5025 -100.7547 259° West 421 484 43,000  Level Kansas City Center
10:25PM 38.4786 -100.9167 259° West 419 482 43,000  Level Kansas City Center
10:26PM 38.4747 -100.9378 257° West 419 482 43,000  Level Denver Center
10:27PM 38.4500 -101.1006 259° West 419 482 43,000  Level Denver Center
10:28PM 38.4286 -101.2411 259° West 423 487 43,000  Level Denver Center
10:29PM 38.4031 -101.4025 259° West 418 481 43,000  Level Denver Center
10:30PM 38.3825 -101.5400 259° West 415 478 43,000  Level Denver Center
10:31PM 38.3567 -101.7008 258° West 416 479 43,000  Level Denver Center
10:32PM 38.3347 -101.8389 259° West 417 480 43,000  Level Denver Center
10:33PM 38.3094 -102.0017 259° West 420 483 43,000  Level Denver Center
10:34PM 38.2858 -102.1394 258° West 418 481 43,000  Level Denver Center
10:35PM 38.2642 -102.2769 259° West 415 478 43,000  Level Denver Center
10:36PM 38.2372 -102.4403 258° West 422 486 43,000  Level Denver Center
10:37PM 38.2136 -102.5783 258° West 421 484 43,000  Level Denver Center
10:38PM 38.1825 -102.7361 256° West 414 476 43,000  Level Denver Center
10:39PM 38.1503 -102.8706 253° West 415 478 43,000  Level Denver Center
10:40PM 38.1089 -103.0278 252° West 421 484 43,000  Level Denver Center
10:41PM 38.0775 -103.1511 252° West 418 481 43,000  Level Denver Center
10:42PM 38.0369 -103.3089 252° West 423 487 43,000  Level Denver Center
10:43PM 38.0017 -103.4417 251° West 417 480 43,000  Level Denver Center
10:44PM 37.9611 -103.5978 252° West 419 482 43,000  Level Denver Center
10:45PM 37.9256 -103.7331 252° West 423 487 43,000  Level Denver Center
10:46PM 37.8847 -103.8872 251° West 418 481 43,000  Level Denver Center
10:47PM 37.8492 -104.0197 251° West 418 481 43,000  Level Denver Center
10:48PM 37.8069 -104.1733 251° West 418 481 43,000  Level Denver Center
10:49PM 37.7711 -104.3053 251° West 418 481 43,000  Level Denver Center
10:50PM 37.7344 -104.4400 251° West 425 489 43,000  Level Denver Center
10:51PM 37.6922 -104.5933 251° West 418 481 43,000  Level Denver Center
10:52PM 37.6572 -104.7225 251° West 409 471 43,000  Level Denver Center
10:53PM 37.6153 -104.8756 251° West 414 476 43,000  Level Denver Center
10:54PM 37.5794 -105.0086 251° West 417 480 43,000  Level Denver Center
10:55PM 37.5347 -105.1547 249° West 405 466 43,000  Level Denver Center
10:56PM 37.4878 -105.2897 246° West 413 475 43,000  Level Denver Center
10:57PM 37.4422 -105.4222 247° West 429 494 43,000  Level Denver Center
10:58PM 37.3950 -105.5539 246° West 431 496 43,000  Level Denver Center
10:59PM 37.3422 -105.7047 246° West 423 487 43,000  Level Denver Center
11:00PM 37.2972 -105.8361 247° West 428 493 43,000  Level Denver Center
11:02PM 37.2417 -105.9894 246° West 432 497 43,000  Level Denver Center
11:03PM 37.1975 -106.1214 247° West 429 494 43,000  Level Denver Center
11:04PM 37.1525 -106.2475 246° West 416 479 43,000  Level Denver Center
11:05PM 37.1008 -106.3928 246° West 409 471 43,000  Level Denver Center
11:06PM 37.0553 -106.5206 246° West 418 481 43,000  Level Denver Center
11:07PM 36.9997 -106.6747 246° West 433 498 43,000  Level Denver Center
11:08PM 36.9528 -106.8069 246° West 436 502 43,000  Level Denver Center
11:09PM 36.9033 -106.9383 245° Southwest 436 502 43,000  Level Denver Center
11:10PM 36.8467 -107.0956 246° West 444 511 43,000  Level Denver Center
11:11PM 36.7969 -107.2297 245° Southwest 445 512 43,000  Level Denver Center
11:12PM 36.7386 -107.3875 245° Southwest 450 518 43,000  Level Denver Center
11:13PM 36.6906 -107.5189 246° West 440 506 43,000  Level Denver Center
11:14PM 36.6419 -107.6511 245° Southwest 439 505 43,000  Level Denver Center
11:15PM 36.5836 -107.8069 245° Southwest 443 510 43,000  Level Denver Center
11:16PM 36.5353 -107.9350 245° Southwest 431 496 43,000  Level Denver Center
11:17PM 36.4789 -108.0836 245° Southwest 427 491 43,000  Level Denver Center
11:18PM 36.4286 -108.2175 245° Southwest 444 511 43,000  Level Denver Center
11:19PM 36.3794 -108.3472 245° Southwest 436 502 43,000  Level Denver Center
11:20PM 36.3231 -108.4986 245° Southwest 433 498 43,000  Level Denver Center
11:21PM 36.2747 -108.6253 245° Southwest 428 493 43,000  Level Denver Center
11:22PM 36.2200 -108.7711 245° Southwest 423 487 43,000  Level Denver Center
11:23PM 36.1722 -108.8969 245° Southwest 427 491 43,000  Level Denver Center
11:24PM 36.1136 -109.0417 243° Southwest 431 496 43,000  Level Denver Center
11:25PM 36.0631 -109.1683 244° Southwest 431 496 43,000  Level Denver Center
11:26PM 36.0294 -109.2533 244° Southwest 435 501 43,000  Level Albuquerque Center
11:27PM 35.9800 -109.3800 244° Southwest 431 496 43,000  Level Albuquerque Center
11:27PM 35.9539 -109.4433 243° Southwest 430 495 43,000  Level Denver Center
11:28PM 35.8872 -109.6131 244° Southwest 431 496 43,000  Level Denver Center
11:29PM 35.8703 -109.6556 244° Southwest 434 499 43,000  Level Albuquerque Center
11:30PM 35.8122 -109.7969 243° Southwest 419 482 43,000  Level Albuquerque Center
11:31PM 35.7625 -109.9194 243° Southwest 416 479 43,000  Level Albuquerque Center
11:32PM 35.7133 -110.0453 244° Southwest 424 488 43,000  Level Albuquerque Center
11:33PM 35.6539 -110.1903 243° Southwest 426 490 43,000  Level Albuquerque Center
11:34PM 35.6019 -110.3139 243° Southwest 424 488 43,000  Level Albuquerque Center
11:35PM 35.5531 -110.4406 245° Southwest 428 493 43,000  Level Albuquerque Center
11:36PM 35.4931 -110.5850 243° Southwest 426 490 43,000  Level Albuquerque Center
11:37PM 35.4428 -110.7081 243° Southwest 423 487 43,000  Level Albuquerque Center
11:38PM 35.3839 -110.8550 244° Southwest 428 493 43,000  Level Albuquerque Center
11:39PM 35.3319 -110.9775 243° Southwest 425 489 43,000  Level Albuquerque Center
11:40PM 35.2811 -111.1022 243° Southwest 426 490 43,000  Level Albuquerque Center
11:41PM 35.2294 -111.2361 245° Southwest 433 498 43,000  Level Albuquerque Center
11:42PM 35.1747 -111.3633 242° Southwest 427 491 43,000  Level Albuquerque Center
11:43PM 35.1222 -111.4894 243° Southwest 422 486 43,000  Level Albuquerque Center
11:44PM 35.0700 -111.6133 243° Southwest 416 479 43,000  Level Albuquerque Center
11:45PM 35.0156 -111.7464 243° Southwest 417 480 43,000  Level Albuquerque Center
11:46PM 34.9669 -111.8789 246° West 426 490 43,000  Level Albuquerque Center
11:47PM 34.9358 -112.0150 254° West 421 484 43,000  Level Albuquerque Center
11:48PM 34.8997 -112.1778 255° West 418 481 43,000  Level Albuquerque Center
11:49PM 34.8692 -112.3161 255° West 421 484 43,000  Level Albuquerque Center
11:50PM 34.8392 -112.4506 255° West 417 480 43,000  Level Albuquerque Center
11:51PM 34.8075 -112.5858 254° West 416 479 43,000  Level Albuquerque Center
11:52PM 34.7764 -112.7239 255° West 420 483 43,000  Level Albuquerque Center
11:53PM 34.7447 -112.8600 254° West 419 482 43,000  Level Albuquerque Center
11:54PM 34.7139 -112.9939 254° West 415 478 43,000  Level Albuquerque Center
11:55PM 34.6819 -113.1283 254° West 415 478 43,000  Level Albuquerque Center
11:56PM 34.6503 -113.2636 254° West 417 480 43,000  Level Albuquerque Center
11:57PM 34.6183 -113.3981 254° West 417 480 43,000  Level Albuquerque Center
11:58PM 34.5858 -113.5344 254° West 420 483 43,000  Level Albuquerque Center
11:59PM 34.5517 -113.6833 254° West 425 489 43,000  Level Albuquerque Center
12:00AM 34.5236 -113.8231 256° West 426 490 43,000  Level Albuquerque Center
12:01AM 34.4958 -113.9600 256° West 421 484 43,000  Level Albuquerque Center
12:02AM 34.4614 -114.1275 256° West 425 489 43,000  Level Albuquerque Center
12:03AM 34.4528 -114.1719 257° West 423 487 43,000  Level Los Angeles Center
12:04AM 34.4200 -114.3372 257° West 422 486 43,000  Level Los Angeles Center
12:05AM 34.3911 -114.4750 256° West 422 486 43,000  Level Los Angeles Center
12:06AM 34.3628 -114.6142 256° West 427 491 43,000  Level Los Angeles Center
12:07AM 34.3328 -114.7497 255° West 420 483 43,000  Level Los Angeles Center
12:08AM 34.3031 -114.8875 255° West 423 487 43,000  Level Los Angeles Center
12:09AM 34.2739 -115.0244 256° West 424 488 43,000 -300 Level Los Angeles Center
12:10AM 34.2447 -115.1597 255° West 419 482 42,500 -780 Descending Los Angeles Center
12:11AM 34.2158 -115.2947 256° West 418 481 41,500 -1,080 Descending Los Angeles Center
12:12AM 34.1800 -115.4550 255° West 415 478 40,300 -1,080 Descending Los Angeles Center
12:13AM 34.1503 -115.5919 255° West 420 483 39,300 -900 Descending Los Angeles Center
12:14AM 34.1219 -115.7328 256° West 428 493 38,300 -1,500 Descending Los Angeles Center
12:15AM 34.0928 -115.9039 258° West 436 502 36,000 -2,220 Descending Los Angeles Center
12:16AM 34.0725 -116.0431 260° West 427 491 33,800 -2,220 Descending Los Angeles Center
12:17AM 34.0508 -116.1828 259° West 427 491 31,500 -2,160 Descending Los Angeles Center
12:18AM 34.0322 -116.3131 260° West 401 461 29,400 -2,100 Descending Los Angeles Center
12:19AM 34.0106 -116.4564 260° West 367 422 27,200 -2,040 Descending Los Angeles Center
12:20AM 33.9989 -116.5703 263° West 348 400 25,300 -1,800 Descending Los Angeles Center
12:21AM 33.9894 -116.6831 264° West 341 392 23,600 -1,740 Descending Los Angeles Center
12:23AM 33.9811 -116.7928 265° West 332 382 21,800 -1,740 Descending Los Angeles Center
12:24AM 33.9667 -116.9167 262° West 317 365 20,000 -1,740 Descending Southern California TRACON
12:25AM 33.9667 -117.0167 270° West 335 386 18,300 -1,500 Descending Southern California TRACON
12:26AM 33.9500 -117.1333 260° West 331 381 17,000 -660 Descending Southern California TRACON
12:27AM 33.9500 -117.2500 270° West 328 377 17,000 -180 Level Southern California TRACON
12:28AM 33.9333 -117.3500 259° West 330 380 16,700 -1,260 Descending Southern California TRACON
12:29AM 33.9667 -117.4667 289° West 321 369 14,500 -1,800 Descending Southern California TRACON
12:30AM 34.0000 -117.5500 296° West 309 356 13,200 -1,200 Descending Southern California TRACON
12:31AM 34.0167 -117.6500 281° West 382 440 12,200 -1,500 Descending Southern California TRACON
12:32AM 34.0167 -117.7500 270° West 274 315 10,200 -1,680 Descending Southern California TRACON
12:33AM 34.0167 -117.8333 270° West 235 270 8,900 -1,200 Descending Southern California TRACON
12:34AM 34.0000 -117.9167 256° West 226 260 7,800 -1,020 Descending Southern California TRACON
12:35AM 34.0000 -117.9833 270° West 215 247 6,900 -960 Descending Southern California TRACON
12:36AM 33.9833 -118.0500 253° West 205 236 5,900 -1,080 Descending Southern California TRACON
12:37AM 33.9833 -118.1167 270° West 191 220 4,800 -1,080 Descending Southern California TRACON
12:38AM 33.9667 -118.1833 253° West 193 222 3,800 -900 Descending Southern California TRACON
12:38AM 33.9747 -118.1819 North 191 220 3,700 -840 Descending Los Angeles Center
12:39AM 33.9669 -118.2553 263° West 187 215 2,600 -1,080 Descending Los Angeles Center
12:40AM 33.9608 -118.3250 264° West 181 208 1,400 -840 Descending Los Angeles Center
12:42AM 33.9517 -118.4147 263° West 138 159 200 -600 Descending Los Angeles Center
12:44AM 33.9425 -118.4081 270° West  Level Estimated
12:51AM 33.9425 -118.4081 270° West  Level Estimated